Main page
METAR-TAF:

METAR-TAF

Airports :

Canberra Airport

Canberra, Australia

latitude: 35-18S, longitude: 149-11E, elevation: 575 m

Current weather observation

The report was made 39 minutes ago, at 13:30 UTC
Wind 6 kt from the Southeast
Temperature 2°C
Humidity 93%
Pressure 1012 hPa
Visibility 10 km or more
Broken clouds at a height of 4500 ft

METAR: YSCB 171330Z AUTO 13006KT 9999 // BKN045 02/01 Q1012 RF00.0/000.0

Time: 00:09 (14:09 UTC)

Forecast

The report was made 2 hours and 43 minutes ago, at 11:26 UTC
Forecast valid from 17 at 12 UTC to 18 at 12 UTC
Wind 3 kt from variable directions
Visibility 10 km or more
Scattered clouds at a height of 3500 ft
From 18 at 0100 UTC
Wind 14 kt from the North/Northwest
Visibility 10 km or more
Scattered clouds at a height of 3000 ft
Probability 30%
from 17 at 15 UTC to 18 at 00 UTC
Visibility: 0300 m
Broken clouds at a height of 200 ft
freezing fog,

TAF: YSCB 171126Z 1712/1812 VRB03KT 9999 SCT035 FM180100 33014KT 9999 SCT030 PROB30 1715/1800 0300 FZFG BKN002

Weather observations and forecasts of more than 4000 airports (METAR and TAF reports).

The available stations are represented by yellow and red dots on the map.

Hover mouse over dot to see the name of the station.

Then click to see weather observations and forecasts.

To change the map : click on the green buttons with a black cross to zoom in, on the green button with a dash to zoom out, or on the green arrows for adjacent maps.


METAR-TAF: